createdAt,value
2023-03-23T00:00:01.091Z,13.1
2023-03-23T00:01:01.104Z,13.1
2023-03-23T00:02:00.506Z,13.1
2023-03-23T00:03:00.264Z,13.1
2023-03-23T00:03:59.859Z,13.1
2023-03-23T00:04:59.457Z,13.1
2023-03-23T00:06:01.049Z,13.1
2023-03-23T00:07:01.041Z,13.1
2023-03-23T00:08:01.133Z,13.1
2023-03-23T00:09:01.938Z,13.1
2023-03-23T00:10:01.949Z,13.1
2023-03-23T00:11:00.738Z,13.1
2023-03-23T00:12:00.442Z,13.1
2023-03-23T00:13:00.126Z,13.1
2023-03-23T00:13:59.715Z,13
2023-03-23T00:14:59.468Z,13
2023-03-23T00:16:04.306Z,13
2023-03-23T00:17:01.131Z,13
2023-03-23T00:18:01.090Z,13
2023-03-23T00:19:01.021Z,13
2023-03-23T00:20:01.102Z,13
2023-03-23T00:21:01.520Z,13
2023-03-23T00:22:01.409Z,13
2023-03-23T00:23:01.121Z,13
2023-03-23T00:24:01.184Z,13
2023-03-23T00:25:01.530Z,13
2023-03-23T00:26:01.949Z,13
2023-03-23T00:27:01.333Z,13
2023-03-23T00:28:01.197Z,13.1
2023-03-23T00:29:01.638Z,13.1
2023-03-23T00:30:01.097Z,13.1
2023-03-23T00:31:01.092Z,13
2023-03-23T00:32:01.090Z,13.1
2023-03-23T00:33:01.085Z,13.1
2023-03-23T00:34:03.753Z,13.1
2023-03-23T00:35:01.091Z,13.1
2023-03-23T00:36:01.528Z,13.1
2023-03-23T00:37:01.107Z,13.1
2023-03-23T00:38:01.114Z,13.1
2023-03-23T00:39:01.143Z,13.1
2023-03-23T00:40:01.188Z,13.1
2023-03-23T00:41:01.189Z,13.1
2023-03-23T00:42:01.068Z,13.1
2023-03-23T00:43:01.000Z,13.1
2023-03-23T00:44:00.669Z,13.1
2023-03-23T00:45:00.433Z,13.1
2023-03-23T00:46:00.142Z,13.1
2023-03-23T00:46:59.982Z,13.1
2023-03-23T00:47:59.836Z,13.1
2023-03-23T00:49:01.763Z,13.1
2023-03-23T00:50:01.776Z,13.1
2023-03-23T00:51:01.390Z,13.1
2023-03-23T00:52:01.236Z,13.1
2023-03-23T00:53:01.911Z,13.1
2023-03-23T00:54:01.113Z,13.1
2023-03-23T00:55:01.144Z,13
2023-03-23T00:56:01.454Z,13.1
2023-03-23T00:57:01.036Z,13.1
2023-03-23T00:58:01.138Z,13.1
2023-03-23T00:59:01.045Z,13.1
2023-03-23T01:00:05.713Z,13.1
2023-03-23T01:01:04.598Z,13.1
2023-03-23T01:02:01.072Z,13.1
2023-03-23T01:03:01.972Z,13.1
2023-03-23T01:04:01.983Z,13.1
2023-03-23T01:05:01.466Z,13.1
2023-03-23T01:06:07.622Z,13.1
2023-03-23T01:07:01.099Z,13.1
2023-03-23T01:08:01.111Z,13.1
2023-03-23T01:09:01.178Z,13.1
2023-03-23T01:10:01.110Z,13.1
2023-03-23T01:11:10.385Z,13.1
2023-03-23T01:12:01.408Z,13.1
2023-03-23T01:13:01.407Z,13.1
2023-03-23T01:14:02.468Z,13.1
2023-03-23T01:15:01.075Z,13.1
2023-03-23T01:16:13.407Z,13.1
2023-03-23T01:17:01.162Z,13.1
2023-03-23T01:18:01.068Z,13.1
2023-03-23T01:19:01.020Z,13.1
2023-03-23T01:20:01.117Z,13.1
2023-03-23T01:21:16.644Z,13.1
2023-03-23T01:22:01.657Z,13.1
2023-03-23T01:23:01.656Z,13.1
2023-03-23T01:24:02.212Z,13.1
2023-03-23T01:25:01.681Z,13.1
2023-03-23T01:26:01.405Z,13.1
2023-03-23T01:27:02.043Z,13.1
2023-03-23T01:28:02.565Z,13.1
2023-03-23T01:29:01.410Z,13.1
2023-03-23T01:30:02.603Z,13.1
2023-03-23T01:31:01.155Z,13.1
2023-03-23T01:32:01.073Z,13.1
2023-03-23T01:33:01.056Z,13.1
2023-03-23T01:34:01.069Z,13.1
2023-03-23T01:35:01.401Z,13.1
2023-03-23T01:36:01.166Z,13.1
2023-03-23T01:37:01.479Z,13.1
2023-03-23T01:38:01.231Z,13.1
2023-03-23T01:39:04.072Z,13.1
2023-03-23T01:40:01.915Z,13.1
2023-03-23T01:41:01.101Z,13.1
2023-03-23T01:42:01.063Z,13.1
2023-03-23T01:43:00.715Z,13.1
2023-03-23T01:44:00.413Z,13.2
2023-03-23T01:45:00.147Z,13.2
2023-03-23T01:45:59.797Z,13.2
2023-03-23T01:47:01.896Z,13.1
2023-03-23T01:48:01.722Z,13.1
2023-03-23T01:49:01.060Z,13.1
2023-03-23T01:50:01.100Z,13.1
2023-03-23T01:51:01.068Z,13.1
2023-03-23T01:52:01.166Z,13.1
2023-03-23T01:53:01.422Z,13.1
2023-03-23T01:54:01.488Z,13.1
2023-03-23T01:55:01.097Z,13.1
2023-03-23T01:56:01.115Z,13.1
2023-03-23T01:57:01.118Z,13.1
2023-03-23T01:58:01.153Z,13.1
2023-03-23T01:59:01.436Z,13.1
2023-03-23T02:00:01.954Z,13.1
2023-03-23T02:01:01.059Z,13.1
2023-03-23T02:02:01.050Z,13.1
2023-03-23T02:03:01.057Z,13.1
2023-03-23T02:04:01.726Z,13.1
2023-03-23T02:05:01.095Z,13.1
2023-03-23T02:06:01.080Z,13.1
2023-03-23T02:07:03.864Z,13.1
2023-03-23T02:08:01.462Z,13.1
2023-03-23T02:09:10.444Z,13.1
2023-03-23T02:10:01.196Z,13.1
2023-03-23T02:11:01.294Z,13.1
2023-03-23T02:12:01.116Z,13.1
2023-03-23T02:13:01.131Z,13.1
2023-03-23T02:14:01.144Z,13.1
2023-03-23T02:15:01.145Z,13.1
2023-03-23T02:16:01.136Z,13.1
2023-03-23T02:17:01.065Z,13.1
2023-03-23T02:18:01.252Z,13.1
2023-03-23T02:19:01.066Z,13.1
2023-03-23T02:20:01.068Z,13.1
2023-03-23T02:21:01.337Z,13.1
2023-03-23T02:22:01.092Z,13.1
2023-03-23T02:23:00.821Z,13.1
2023-03-23T02:24:00.480Z,13.1
2023-03-23T02:25:00.496Z,13.1
2023-03-23T02:26:00.278Z,13.1
2023-03-23T02:26:59.961Z,13.1
2023-03-23T02:27:59.762Z,13.1
2023-03-23T02:28:59.484Z,13.1
2023-03-23T02:30:01.057Z,13.1
2023-03-23T02:31:02.110Z,13.2
2023-03-23T02:32:01.142Z,13.1
2023-03-23T02:33:01.392Z,13.1
2023-03-23T02:34:04.094Z,13.1
2023-03-23T02:35:01.472Z,13.1
2023-03-23T02:36:02.115Z,13.2
2023-03-23T02:37:02.603Z,13.1
2023-03-23T02:38:01.743Z,13.1
2023-03-23T02:39:01.350Z,13.1
2023-03-23T02:40:02.531Z,13.1
2023-03-23T02:41:01.040Z,13.1
2023-03-23T02:42:13.865Z,13.1
2023-03-23T02:43:01.132Z,13.1
2023-03-23T02:44:01.129Z,13.1
2023-03-23T02:45:01.139Z,13.1
2023-03-23T02:46:01.132Z,13.1
2023-03-23T02:47:09.500Z,13.1
2023-03-23T02:48:01.141Z,13.1
2023-03-23T02:49:01.746Z,13.1
2023-03-23T02:50:01.716Z,13.1
2023-03-23T02:51:01.104Z,13.1
2023-03-23T02:52:11.648Z,13.1
2023-03-23T02:53:01.065Z,13.1
2023-03-23T02:54:01.037Z,13.1
2023-03-23T02:55:01.062Z,13.1
2023-03-23T02:56:01.109Z,13.1
2023-03-23T02:57:13.525Z,13.1
2023-03-23T02:58:01.772Z,13
2023-03-23T02:59:01.153Z,13.1
2023-03-23T03:00:01.144Z,13
2023-03-23T03:01:01.529Z,13
2023-03-23T03:02:16.811Z,13
2023-03-23T03:03:01.477Z,13
2023-03-23T03:04:00.915Z,13
2023-03-23T03:05:01.033Z,13
2023-03-23T03:06:01.149Z,13
2023-03-23T03:07:02.287Z,13
2023-03-23T03:08:01.066Z,13
2023-03-23T03:09:01.030Z,13
2023-03-23T03:10:01.304Z,13
2023-03-23T03:11:01.282Z,13
2023-03-23T03:12:01.470Z,13
2023-03-23T03:13:01.994Z,13
2023-03-23T03:14:01.105Z,13
2023-03-23T03:15:01.107Z,13
2023-03-23T03:16:01.151Z,12.9
2023-03-23T03:17:01.104Z,12.9
2023-03-23T03:18:00.809Z,12.9
2023-03-23T03:19:00.431Z,12.9
2023-03-23T03:20:00.176Z,12.9
2023-03-23T03:21:01.320Z,12.9
2023-03-23T03:22:01.041Z,12.8
2023-03-23T03:23:01.725Z,12.8
2023-03-23T03:24:02.091Z,12.8
2023-03-23T03:25:17.762Z,12.8
2023-03-23T03:26:02.157Z,12.8
2023-03-23T03:27:01.141Z,12.8
2023-03-23T03:28:01.607Z,12.8
2023-03-23T03:29:01.092Z,12.8
2023-03-23T03:30:01.103Z,12.8
2023-03-23T03:31:01.096Z,12.8
2023-03-23T03:32:01.108Z,12.8
2023-03-23T03:33:01.518Z,12.8
2023-03-23T03:34:01.147Z,12.8
2023-03-23T03:35:01.122Z,12.8
2023-03-23T03:36:01.165Z,12.8
2023-03-23T03:37:01.049Z,12.8
2023-03-23T03:38:01.069Z,12.8
2023-03-23T03:39:01.172Z,12.8
2023-03-23T03:40:01.071Z,12.8
2023-03-23T03:41:01.067Z,12.8
2023-03-23T03:42:01.738Z,12.8
2023-03-23T03:43:01.499Z,12.8
2023-03-23T03:44:01.107Z,12.8
2023-03-23T03:45:01.806Z,12.8
2023-03-23T03:46:02.347Z,12.8
2023-03-23T03:47:01.635Z,12.8
2023-03-23T03:48:01.119Z,12.8
2023-03-23T03:49:00.910Z,12.9
2023-03-23T03:50:01.366Z,12.9
2023-03-23T03:51:01.305Z,12.9
2023-03-23T03:52:01.522Z,12.9
2023-03-23T03:53:02.155Z,13
2023-03-23T03:54:01.060Z,13
2023-03-23T03:55:01.338Z,13
2023-03-23T03:56:01.076Z,13
2023-03-23T03:57:01.069Z,13
2023-03-23T03:58:01.382Z,13
2023-03-23T03:59:21.726Z,13
2023-03-23T04:00:02.069Z,13
2023-03-23T04:01:01.492Z,13
2023-03-23T04:02:01.226Z,13
2023-03-23T04:03:02.927Z,13
2023-03-23T04:04:02.072Z,13
2023-03-23T04:05:01.192Z,13
2023-03-23T04:06:01.115Z,13
2023-03-23T04:07:01.129Z,13
2023-03-23T04:08:09.377Z,13.1
2023-03-23T04:09:08.316Z,13.1
2023-03-23T04:10:01.049Z,13
2023-03-23T04:11:01.032Z,13
2023-03-23T04:12:01.061Z,13
2023-03-23T04:13:01.049Z,13
2023-03-23T04:14:02.130Z,13.1
2023-03-23T04:15:06.413Z,13.1
2023-03-23T04:16:10.112Z,13.1
2023-03-23T04:17:01.467Z,13
2023-03-23T04:18:02.652Z,13
2023-03-23T04:19:01.301Z,13
2023-03-23T04:20:02.024Z,13
2023-03-23T04:21:01.154Z,13
2023-03-23T04:22:01.154Z,13
2023-03-23T04:23:06.297Z,13
2023-03-23T04:24:01.051Z,13
2023-03-23T04:25:01.977Z,13
2023-03-23T04:26:02.642Z,13
2023-03-23T04:27:02.804Z,13
2023-03-23T04:28:10.142Z,13.1
2023-03-23T04:29:01.458Z,13.1
2023-03-23T04:30:01.086Z,13.1
2023-03-23T04:31:01.102Z,13.1
2023-03-23T04:32:01.087Z,13.1
2023-03-23T04:33:15.023Z,13.1
2023-03-23T04:34:02.043Z,13.1
2023-03-23T04:35:13.051Z,13.1
2023-03-23T04:36:01.517Z,13.1
2023-03-23T04:37:01.111Z,13.1
2023-03-23T04:38:01.025Z,13
2023-03-23T04:39:01.027Z,13
2023-03-23T04:40:01.044Z,13
2023-03-23T04:41:01.033Z,13
2023-03-23T04:42:01.037Z,13
2023-03-23T04:43:01.056Z,13.1
2023-03-23T04:44:01.400Z,13.1
2023-03-23T04:45:01.059Z,13.1
2023-03-23T04:46:01.082Z,13.1
2023-03-23T04:47:01.162Z,13.1
2023-03-23T04:48:01.420Z,13.1
2023-03-23T04:49:00.897Z,13.1
2023-03-23T04:50:01.139Z,13.1
2023-03-23T04:51:01.133Z,13.1
2023-03-23T04:52:01.104Z,13.1
2023-03-23T04:53:01.139Z,13.1
2023-03-23T04:54:01.063Z,13.1
2023-03-23T04:55:01.025Z,13.1
2023-03-23T04:56:01.137Z,13.1
2023-03-23T04:57:01.036Z,13.1
2023-03-23T04:58:01.059Z,13.1
2023-03-23T04:59:01.057Z,13.1
2023-03-23T05:00:01.077Z,13.1
2023-03-23T05:01:01.184Z,13.1
2023-03-23T05:02:14.748Z,13.1
2023-03-23T05:03:01.112Z,13.1
2023-03-23T05:04:01.114Z,13.2
2023-03-23T05:05:01.805Z,13.2
2023-03-23T05:06:01.784Z,13.2
2023-03-23T05:07:01.502Z,13.2
2023-03-23T05:08:01.452Z,13.3
2023-03-23T05:09:01.153Z,13.3
2023-03-23T05:10:00.822Z,13.3
2023-03-23T05:11:01.445Z,13.3
2023-03-23T05:12:01.137Z,13.3
2023-03-23T05:13:01.041Z,13.3
2023-03-23T05:14:01.172Z,13.2
2023-03-23T05:15:01.604Z,13.3
2023-03-23T05:16:01.159Z,13.3
2023-03-23T05:17:01.328Z,13.3
2023-03-23T05:18:01.233Z,13.3
2023-03-23T05:19:01.269Z,13.2
2023-03-23T05:20:02.593Z,13.3
2023-03-23T05:21:02.002Z,13.3
2023-03-23T05:22:01.446Z,13.3
2023-03-23T05:23:01.098Z,13.3
2023-03-23T05:24:01.225Z,13.2
2023-03-23T05:25:01.125Z,13.3
2023-03-23T05:26:01.124Z,13.3
2023-03-23T05:27:01.562Z,13.3
2023-03-23T05:28:01.356Z,13.3
2023-03-23T05:29:02.267Z,13.2
2023-03-23T05:30:01.067Z,13.2
2023-03-23T05:31:01.075Z,13.2
2023-03-23T05:32:01.430Z,13.2
2023-03-23T05:33:01.900Z,13.2
2023-03-23T05:34:01.794Z,13.2
2023-03-23T05:35:00.550Z,13.2
2023-03-23T05:36:00.219Z,13.3
2023-03-23T05:37:00.112Z,13.3
2023-03-23T05:37:59.949Z,13.3
2023-03-23T05:39:01.094Z,13.3
2023-03-23T05:40:00.777Z,13.3
2023-03-23T05:41:01.105Z,13.3
2023-03-23T05:42:01.124Z,13.3
2023-03-23T05:43:01.213Z,13.3
2023-03-23T05:44:01.185Z,13.4
2023-03-23T05:45:01.228Z,13.4
2023-03-23T05:46:02.074Z,13.4
2023-03-23T05:47:01.209Z,13.4
2023-03-23T05:48:07.056Z,13.5
2023-03-23T05:49:03.344Z,13.5
2023-03-23T05:50:01.370Z,13.5
2023-03-23T05:51:02.087Z,13.5
2023-03-23T05:52:01.078Z,13.5
2023-03-23T05:53:01.083Z,13.5
2023-03-23T05:54:06.472Z,13.5
2023-03-23T05:55:00.989Z,13.5
2023-03-23T05:56:01.081Z,13.5
2023-03-23T05:57:01.289Z,13.5
2023-03-23T05:58:01.127Z,13.5
2023-03-23T05:59:09.513Z,13.5
2023-03-23T06:00:03.911Z,13.5
2023-03-23T06:01:01.740Z,13.5
2023-03-23T06:02:01.149Z,13.5
2023-03-23T06:03:01.883Z,13.5
2023-03-23T06:04:12.596Z,13.5
2023-03-23T06:05:01.277Z,13.5
2023-03-23T06:06:01.286Z,13.5
2023-03-23T06:07:01.247Z,13.5
2023-03-23T06:08:02.119Z,13.5
2023-03-23T06:09:14.532Z,13.5
2023-03-23T06:10:01.088Z,13.5
2023-03-23T06:11:01.523Z,13.5
2023-03-23T06:12:01.522Z,13.5
2023-03-23T06:13:01.114Z,13.5
2023-03-23T06:14:01.113Z,13.5
2023-03-23T06:15:01.293Z,13.5
2023-03-23T06:16:01.321Z,13.5
2023-03-23T06:17:01.127Z,13.5
2023-03-23T06:18:01.070Z,13.5
2023-03-23T06:19:01.063Z,13.5
2023-03-23T06:20:01.856Z,13.5
2023-03-23T06:21:01.126Z,13.5
2023-03-23T06:22:01.100Z,13.5
2023-03-23T06:23:01.191Z,13.5
2023-03-23T06:24:01.230Z,13.6
2023-03-23T06:25:01.355Z,13.6
2023-03-23T06:26:04.579Z,13.6
2023-03-23T06:27:01.651Z,13.6
2023-03-23T06:28:01.299Z,13.6
2023-03-23T06:29:02.030Z,13.6
2023-03-23T06:30:01.023Z,13.6
2023-03-23T06:31:01.197Z,13.6
2023-03-23T06:32:01.256Z,13.6
2023-03-23T06:33:01.938Z,13.6
2023-03-23T06:34:01.877Z,13.6
2023-03-23T06:35:01.121Z,13.6
2023-03-23T06:36:01.149Z,13.6
2023-03-23T06:37:01.434Z,13.7
2023-03-23T06:38:01.090Z,13.7
2023-03-23T06:39:01.084Z,13.8
2023-03-23T06:40:01.007Z,13.8
2023-03-23T06:41:01.119Z,13.8
2023-03-23T06:42:02.887Z,13.8
2023-03-23T06:43:01.479Z,13.9
2023-03-23T06:44:01.239Z,13.9
2023-03-23T06:45:00.915Z,13.9
2023-03-23T06:46:01.138Z,14
2023-03-23T06:47:01.153Z,14
2023-03-23T06:48:01.180Z,14
2023-03-23T06:49:01.042Z,14
2023-03-23T06:50:01.476Z,14.1
2023-03-23T06:51:01.443Z,14.1
2023-03-23T06:52:04.278Z,14.1
2023-03-23T06:53:01.100Z,14.1
2023-03-23T06:54:01.087Z,14.1
2023-03-23T06:55:01.065Z,14.1
2023-03-23T06:56:01.096Z,14.1
2023-03-23T06:57:01.902Z,14.1
2023-03-23T06:58:01.780Z,14.1
2023-03-23T06:59:01.362Z,14.1
2023-03-23T07:00:02.228Z,14.1
2023-03-23T07:01:01.098Z,14.1
2023-03-23T07:02:01.052Z,14.1
2023-03-23T07:03:01.144Z,14.1
2023-03-23T07:04:01.134Z,14.2
2023-03-23T07:05:01.032Z,14.2
2023-03-23T07:06:01.096Z,14.3
2023-03-23T07:07:00.805Z,14.3
2023-03-23T07:08:01.234Z,14.3
2023-03-23T07:09:01.648Z,14.3
2023-03-23T07:10:00.874Z,14.3
2023-03-23T07:11:01.101Z,14.2
2023-03-23T07:12:01.040Z,14.2
2023-03-23T07:13:01.783Z,14.2
2023-03-23T07:14:02.907Z,14.2
2023-03-23T07:15:01.536Z,14.2
2023-03-23T07:16:01.126Z,14.2
2023-03-23T07:17:01.168Z,14.2
2023-03-23T07:18:01.166Z,14.2
2023-03-23T07:19:01.534Z,14.2
2023-03-23T07:20:01.137Z,14.1
2023-03-23T07:21:01.844Z,14.1
2023-03-23T07:22:01.886Z,14.1
2023-03-23T07:23:02.476Z,14.2
2023-03-23T07:24:01.059Z,14.2
2023-03-23T07:25:00.746Z,14.1
2023-03-23T07:26:00.765Z,14.2
2023-03-23T07:27:00.779Z,14.2
2023-03-23T07:28:00.364Z,14.2
2023-03-23T07:28:59.949Z,14.2
2023-03-23T07:30:03.466Z,14.3
2023-03-23T07:31:01.118Z,14.2
2023-03-23T07:32:01.122Z,14.3
2023-03-23T07:33:01.109Z,14.3
2023-03-23T07:34:01.143Z,14.3
2023-03-23T07:35:07.300Z,14.3
2023-03-23T07:36:02.238Z,14.3
2023-03-23T07:37:01.964Z,14.3
2023-03-23T07:38:01.066Z,14.3
2023-03-23T07:39:01.057Z,14.3
2023-03-23T07:40:09.236Z,14.3
2023-03-23T07:41:01.419Z,14.3
2023-03-23T07:42:01.931Z,14.3
2023-03-23T07:43:01.044Z,14.3
2023-03-23T07:44:01.081Z,14.3
2023-03-23T07:45:11.052Z,14.3
2023-03-23T07:46:01.112Z,14.3
2023-03-23T07:47:00.811Z,14.3
2023-03-23T07:48:01.996Z,14.3
2023-03-23T07:49:01.646Z,14.3
2023-03-23T07:50:15.041Z,14.3
2023-03-23T07:51:01.364Z,14.4
2023-03-23T07:52:01.956Z,14.4
2023-03-23T07:53:02.059Z,14.3
2023-03-23T07:54:01.412Z,14.4
2023-03-23T07:55:16.936Z,14.4
2023-03-23T07:56:01.066Z,14.3
2023-03-23T07:57:01.078Z,14.3
2023-03-23T07:58:01.079Z,14.4
2023-03-23T07:59:01.177Z,14.3
2023-03-23T08:00:00.786Z,14.4
2023-03-23T08:01:00.625Z,14.3
2023-03-23T08:02:00.304Z,14.3
2023-03-23T08:03:00.144Z,14.3
2023-03-23T08:03:59.880Z,14.3
2023-03-23T08:04:59.452Z,14.3
2023-03-23T08:06:01.044Z,14.3
2023-03-23T08:07:00.643Z,14.3
2023-03-23T08:08:00.209Z,14.3
2023-03-23T08:08:59.839Z,14.3
2023-03-23T08:10:01.547Z,14.3
2023-03-23T08:11:01.089Z,14.2
2023-03-23T08:12:01.269Z,14.2
2023-03-23T08:13:01.283Z,14.2
2023-03-23T08:14:01.469Z,14.1
2023-03-23T08:15:01.106Z,14.1
2023-03-23T08:16:01.076Z,14.1
2023-03-23T08:17:01.106Z,14.1
2023-03-23T08:18:01.087Z,14.1
2023-03-23T08:19:08.771Z,14.1
2023-03-23T08:20:01.111Z,14.1
2023-03-23T08:21:01.494Z,14.1
2023-03-23T08:22:02.131Z,14.1
2023-03-23T08:23:01.533Z,14.1
2023-03-23T08:24:01.156Z,14.1
2023-03-23T08:25:01.029Z,14.1
2023-03-23T08:26:00.540Z,14
2023-03-23T08:27:00.222Z,14
2023-03-23T08:27:59.807Z,14
2023-03-23T08:29:01.909Z,14
2023-03-23T08:30:01.112Z,14
2023-03-23T08:31:01.498Z,13.9
2023-03-23T08:32:01.106Z,13.9
2023-03-23T08:33:01.094Z,13.9
2023-03-23T08:34:01.360Z,13.9
2023-03-23T08:35:01.098Z,13.8
2023-03-23T08:36:01.151Z,13.9
2023-03-23T08:37:01.116Z,13.8
2023-03-23T08:38:01.132Z,13.8
2023-03-23T08:39:01.424Z,13.8
2023-03-23T08:40:01.423Z,13.8
2023-03-23T08:41:01.016Z,13.8
2023-03-23T08:42:01.055Z,13.8
2023-03-23T08:43:01.399Z,13.8
2023-03-23T08:44:01.158Z,13.8
2023-03-23T08:45:01.062Z,13.8
2023-03-23T08:46:00.870Z,13.7
2023-03-23T08:47:01.093Z,13.8
2023-03-23T08:48:01.535Z,13.8
2023-03-23T08:49:01.190Z,13.7
2023-03-23T08:50:01.146Z,13.7
2023-03-23T08:51:01.949Z,13.6
2023-03-23T08:52:02.565Z,13.7
2023-03-23T08:53:01.180Z,13.6
2023-03-23T08:54:01.520Z,13.6
2023-03-23T08:55:01.152Z,13.6
2023-03-23T08:56:01.389Z,13.6
2023-03-23T08:57:01.379Z,13.6
2023-03-23T08:58:02.336Z,13.6
2023-03-23T08:59:02.362Z,13.6
2023-03-23T09:00:02.087Z,13.6
2023-03-23T09:01:01.070Z,13.6
2023-03-23T09:02:01.062Z,13.6
2023-03-23T09:03:01.086Z,13.6
2023-03-23T09:04:01.087Z,13.6
2023-03-23T09:05:01.085Z,13.6
2023-03-23T09:06:00.600Z,13.6
2023-03-23T09:07:00.279Z,13.6
2023-03-23T09:07:59.857Z,13.6
2023-03-23T09:09:01.434Z,13.6
2023-03-23T09:10:02.553Z,13.6
2023-03-23T09:11:01.165Z,13.6
2023-03-23T09:12:02.027Z,13.6
2023-03-23T09:13:01.764Z,13.6
2023-03-23T09:14:01.351Z,13.6
2023-03-23T09:15:01.360Z,13.6
2023-03-23T09:16:02.180Z,13.6
2023-03-23T09:17:01.030Z,13.6
2023-03-23T09:18:02.097Z,13.6
2023-03-23T09:19:01.083Z,13.7
2023-03-23T09:20:01.078Z,13.7
2023-03-23T09:21:04.299Z,13.7
2023-03-23T09:22:01.142Z,13.7
2023-03-23T09:23:01.814Z,13.8
2023-03-23T09:24:02.024Z,13.8
2023-03-23T09:25:02.549Z,13.8
2023-03-23T09:26:05.196Z,13.8
2023-03-23T09:27:01.413Z,13.8
2023-03-23T09:28:01.433Z,13.8
2023-03-23T09:29:02.592Z,13.8
2023-03-23T09:30:01.859Z,13.8
2023-03-23T09:31:08.005Z,13.8
2023-03-23T09:32:01.107Z,13.8
2023-03-23T09:33:01.060Z,13.9
2023-03-23T09:34:01.088Z,13.9
2023-03-23T09:35:01.089Z,13.9
2023-03-23T09:36:10.883Z,14
2023-03-23T09:37:01.312Z,14
2023-03-23T09:38:01.115Z,14
2023-03-23T09:39:01.099Z,14
2023-03-23T09:40:06.933Z,14
2023-03-23T09:41:13.762Z,14
2023-03-23T09:42:01.411Z,14
2023-03-23T09:43:01.149Z,14
2023-03-23T09:44:01.143Z,14
2023-03-23T09:45:01.151Z,14
2023-03-23T09:46:15.145Z,14.1
2023-03-23T09:47:01.264Z,14
2023-03-23T09:48:01.874Z,14.1
2023-03-23T09:49:02.596Z,14.1
2023-03-23T09:50:01.057Z,14.1
2023-03-23T09:51:01.073Z,14.1
2023-03-23T09:52:01.112Z,14.1
2023-03-23T09:53:01.025Z,14.1
2023-03-23T09:54:01.110Z,14.2
2023-03-23T09:55:01.104Z,14.1
2023-03-23T09:56:01.169Z,14.2
2023-03-23T09:57:01.245Z,14.2
2023-03-23T09:58:01.525Z,14.2
2023-03-23T09:59:00.919Z,14.3
2023-03-23T10:00:01.128Z,14.2
2023-03-23T10:01:01.097Z,14.2
2023-03-23T10:02:01.043Z,14.2
2023-03-23T10:03:01.077Z,14.3
2023-03-23T10:04:01.073Z,14.3
2023-03-23T10:05:01.069Z,14.3
2023-03-23T10:06:01.217Z,14.3
2023-03-23T10:07:01.483Z,14.3
2023-03-23T10:08:01.086Z,14.3
2023-03-23T10:09:01.097Z,14.3
2023-03-23T10:10:01.136Z,14.4
2023-03-23T10:11:01.111Z,14.4
2023-03-23T10:12:01.099Z,14.5
2023-03-23T10:13:01.111Z,14.5
2023-03-23T10:14:01.123Z,14.5
2023-03-23T10:15:01.459Z,14.5
2023-03-23T10:16:01.429Z,14.5
2023-03-23T10:17:01.096Z,14.5
2023-03-23T10:18:01.306Z,14.5
2023-03-23T10:19:01.857Z,14.5
2023-03-23T10:20:01.920Z,14.5
2023-03-23T10:21:02.581Z,14.5
2023-03-23T10:22:02.098Z,14.5
2023-03-23T10:23:01.771Z,14.5
2023-03-23T10:24:01.098Z,14.5
2023-03-23T10:25:01.096Z,14.5
2023-03-23T10:26:00.784Z,14.5
2023-03-23T10:27:00.378Z,14.5
2023-03-23T10:27:59.979Z,14.5
2023-03-23T10:28:59.518Z,14.5
2023-03-23T10:30:01.128Z,14.6
2023-03-23T10:31:01.176Z,14.5
2023-03-23T10:32:02.383Z,14.5
2023-03-23T10:33:02.402Z,14.6
2023-03-23T10:34:01.038Z,14.6
2023-03-23T10:35:01.047Z,14.6
2023-03-23T10:36:01.112Z,14.6
2023-03-23T10:37:01.104Z,14.6
2023-03-23T10:38:00.472Z,14.6
2023-03-23T10:39:00.046Z,14.6
2023-03-23T10:39:59.647Z,14.6
2023-03-23T10:41:01.790Z,14.7
2023-03-23T10:42:01.098Z,14.7
2023-03-23T10:43:00.804Z,14.7
2023-03-23T10:44:00.400Z,14.8
2023-03-23T10:45:00.161Z,14.7
2023-03-23T10:46:01.049Z,14.7
2023-03-23T10:47:01.517Z,14.7
2023-03-23T10:48:01.288Z,14.8
2023-03-23T10:49:02.108Z,14.8
2023-03-23T10:50:01.071Z,14.9
2023-03-23T10:51:01.071Z,14.9
2023-03-23T10:52:01.077Z,15
2023-03-23T10:53:01.075Z,15
2023-03-23T10:54:01.078Z,15
2023-03-23T10:55:01.081Z,15
2023-03-23T10:56:01.078Z,15
2023-03-23T10:57:03.876Z,15
2023-03-23T10:58:01.127Z,15.1
2023-03-23T10:59:01.109Z,15.1
2023-03-23T11:00:01.120Z,15.1
2023-03-23T11:01:01.938Z,15.1
2023-03-23T11:02:01.419Z,15.1
2023-03-23T11:03:01.042Z,15.1
2023-03-23T11:04:01.159Z,15.1
2023-03-23T11:05:05.160Z,15.1
2023-03-23T11:06:01.356Z,15.1
2023-03-23T11:07:01.011Z,15.1
2023-03-23T11:08:01.110Z,15.1
2023-03-23T11:09:01.300Z,15.1
2023-03-23T11:10:01.329Z,15.1
2023-03-23T11:11:01.991Z,15.1
2023-03-23T11:12:02.816Z,15.1
2023-03-23T11:13:01.105Z,15.1
2023-03-23T11:14:01.111Z,15.1
2023-03-23T11:15:01.120Z,15.1
2023-03-23T11:16:01.113Z,15.1
2023-03-23T11:17:13.897Z,15
2023-03-23T11:18:01.276Z,15
2023-03-23T11:19:01.139Z,15
2023-03-23T11:20:01.048Z,15
2023-03-23T11:21:01.055Z,15
2023-03-23T11:22:09.724Z,15
2023-03-23T11:23:01.081Z,15
2023-03-23T11:24:09.686Z,15
2023-03-23T11:25:01.369Z,15
2023-03-23T11:26:01.381Z,15.1
2023-03-23T11:27:11.918Z,15.1
2023-03-23T11:28:01.308Z,15.1
2023-03-23T11:29:01.144Z,15.1
2023-03-23T11:30:01.123Z,15.1
2023-03-23T11:31:01.120Z,15.1
2023-03-23T11:32:16.009Z,15.1
2023-03-23T11:33:01.427Z,15.1
2023-03-23T11:34:06.329Z,15.2
2023-03-23T11:35:15.718Z,15.2
2023-03-23T11:36:01.484Z,15.2
2023-03-23T11:37:01.529Z,15.2
2023-03-23T11:38:02.196Z,15.2
2023-03-23T11:39:01.192Z,15.3
2023-03-23T11:40:01.072Z,15.3
2023-03-23T11:41:01.057Z,15.3
2023-03-23T11:42:09.291Z,15.3
2023-03-23T11:43:01.194Z,15.3
2023-03-23T11:44:01.099Z,15.4
2023-03-23T11:45:01.087Z,15.4
2023-03-23T11:46:01.541Z,15.5
2023-03-23T11:47:01.143Z,15.5
2023-03-23T11:48:01.108Z,15.5
2023-03-23T11:49:01.118Z,15.5
2023-03-23T11:50:01.142Z,15.5
2023-03-23T11:51:01.304Z,15.6
2023-03-23T11:52:01.529Z,15.6
2023-03-23T11:53:01.246Z,15.6
2023-03-23T11:54:01.074Z,15.6
2023-03-23T11:55:01.065Z,15.6
2023-03-23T11:56:01.105Z,15.6
2023-03-23T11:57:01.069Z,15.6
2023-03-23T11:58:01.078Z,15.7
2023-03-23T11:59:01.115Z,15.7
2023-03-23T12:00:01.527Z,15.8
2023-03-23T12:01:01.493Z,15.8
2023-03-23T12:02:11.589Z,15.8
2023-03-23T12:03:01.784Z,15.8
2023-03-23T12:04:01.425Z,15.8
2023-03-23T12:05:01.218Z,15.8
2023-03-23T12:06:01.934Z,15.8
2023-03-23T12:07:01.205Z,15.8
2023-03-23T12:08:01.414Z,15.8
2023-03-23T12:09:01.180Z,15.8
2023-03-23T12:10:01.055Z,15.8
2023-03-23T12:11:01.921Z,15.8
2023-03-23T12:12:01.056Z,15.8
2023-03-23T12:13:01.069Z,15.8
2023-03-23T12:14:01.091Z,15.9
2023-03-23T12:15:01.526Z,15.9
2023-03-23T12:16:01.079Z,15.9
2023-03-23T12:17:01.086Z,15.9
2023-03-23T12:18:01.098Z,15.9
2023-03-23T12:19:01.717Z,15.9
2023-03-23T12:20:01.154Z,15.9
2023-03-23T12:21:01.026Z,15.9
2023-03-23T12:21:59.774Z,16
2023-03-23T12:23:01.688Z,15.9
2023-03-23T12:24:03.165Z,15.9
2023-03-23T12:25:02.196Z,16
2023-03-23T12:26:01.343Z,16
2023-03-23T12:27:02.591Z,16
2023-03-23T12:28:02.596Z,16
2023-03-23T12:29:01.270Z,16
2023-03-23T12:30:01.175Z,16
2023-03-23T12:31:01.079Z,16
2023-03-23T12:32:01.261Z,16
2023-03-23T12:33:01.252Z,16
2023-03-23T12:34:01.126Z,16
2023-03-23T12:35:01.177Z,16
2023-03-23T12:36:00.792Z,16.1
2023-03-23T12:37:00.563Z,16.1
2023-03-23T12:38:00.195Z,16.1
2023-03-23T12:38:59.894Z,16.1
2023-03-23T12:39:59.628Z,16.1
2023-03-23T12:41:01.720Z,16.1
2023-03-23T12:42:01.977Z,16.1
2023-03-23T12:43:02.209Z,16.1
2023-03-23T12:44:01.094Z,16.1
2023-03-23T12:45:01.077Z,16.1
2023-03-23T12:46:00.758Z,16.2
2023-03-23T12:47:01.083Z,16.2
2023-03-23T12:48:01.158Z,16.1
2023-03-23T12:49:01.165Z,16.2
2023-03-23T12:50:01.151Z,16.3
2023-03-23T12:51:01.483Z,16.2
2023-03-23T12:52:02.970Z,16.2
2023-03-23T12:53:03.495Z,16.2
2023-03-23T12:54:01.126Z,16.2
2023-03-23T12:55:01.147Z,16.2
2023-03-23T12:56:01.050Z,16.2
2023-03-23T12:57:01.040Z,16.2
2023-03-23T12:58:05.912Z,16.3
2023-03-23T12:59:01.415Z,16.3
2023-03-23T13:00:01.166Z,16.2
2023-03-23T13:01:01.288Z,16.2
2023-03-23T13:02:01.080Z,16.3
2023-03-23T13:03:08.435Z,16.2
2023-03-23T13:04:01.767Z,16.2
2023-03-23T13:05:01.087Z,16.2
2023-03-23T13:06:01.120Z,16.3
2023-03-23T13:07:01.116Z,16.3
2023-03-23T13:08:11.614Z,16.3
2023-03-23T13:09:01.113Z,16.3
2023-03-23T13:10:01.140Z,16.3
2023-03-23T13:11:01.132Z,16.3
2023-03-23T13:12:01.071Z,16.3
2023-03-23T13:13:15.104Z,16.4
2023-03-23T13:14:01.468Z,16.4
2023-03-23T13:15:02.040Z,16.4
2023-03-23T13:16:01.071Z,16.4
2023-03-23T13:17:01.081Z,16.3
2023-03-23T13:18:01.079Z,16.3
2023-03-23T13:19:01.281Z,16.3
2023-03-23T13:20:01.135Z,16.3
2023-03-23T13:21:01.087Z,16.3
2023-03-23T13:22:01.109Z,16.3
2023-03-23T13:23:01.219Z,16.3
2023-03-23T13:24:01.189Z,16.2
2023-03-23T13:25:01.446Z,16.2
2023-03-23T13:26:01.449Z,16.2